Time;durP1;ratioP1;P1;durP2;ratioP2;P2;SDS_P1;SDS_P2;PMS_P1;PMS_P2;Temp;Humidity;BMP_temperature;BMP_pressure;BME280_temperature;BME280_humidity;BME280_pressure;Samples;Min_cycle;Max_cycle;Signal;HPM_P1;HPM_P2
2021/03/21 00:00:38;;;;;;;5.80;4.10;;;3.50;83.90;;;;;;5041851;28;20592;-74
2021/03/21 00:03:05;;;;;;;7.10;4.93;;;3.50;84.50;;;;;;5040511;28;20578;-73
2021/03/21 00:05:31;;;;;;;7.10;3.83;;;3.50;85.10;;;;;;5051416;28;20440;-75
2021/03/21 00:08:00;;;;;;;5.30;4.10;;;3.50;85.80;;;;;;5048013;28;20524;-75
2021/03/21 00:10:28;;;;;;;7.27;4.57;;;3.50;85.70;;;;;;5050432;28;20472;-76
2021/03/21 00:12:55;;;;;;;5.20;3.93;;;3.50;85.40;;;;;;5051146;28;20487;-73
2021/03/21 00:15:22;;;;;;;5.80;4.13;;;3.50;86.80;;;;;;5051654;28;20505;-75
2021/03/21 00:17:49;;;;;;;4.87;3.97;;;3.40;87.40;;;;;;5051567;28;20547;-77
2021/03/21 00:20:18;;;;;;;4.50;3.90;;;3.40;85.90;;;;;;5049805;28;20523;-75
2021/03/21 00:22:45;;;;;;;4.33;3.50;;;3.40;86.70;;;;;;5049882;28;20515;-75
2021/03/21 00:25:17;;;;;;;6.03;4.23;;;3.30;85.20;;;;;;5051750;28;20546;-74
2021/03/21 00:27:44;;;;;;;6.53;3.87;;;3.30;86.90;;;;;;5051189;28;20546;-76
2021/03/21 00:30:16;;;;;;;5.50;4.07;;;3.30;86.50;;;;;;5051074;28;20586;-76
2021/03/21 00:32:43;;;;;;;6.53;4.10;;;3.30;87.70;;;;;;5051202;28;20464;-76
2021/03/21 00:35:10;;;;;;;5.07;3.90;;;3.30;87.70;;;;;;5051023;28;20522;-74
2021/03/21 00:37:39;;;;;;;4.70;4.03;;;3.40;87.50;;;;;;5050967;28;20852;-76
2021/03/21 00:40:07;;;;;;;5.60;4.93;;;3.30;88.20;;;;;;5051035;28;20494;-76
2021/03/21 00:42:34;;;;;;;6.50;4.37;;;3.30;89.20;;;;;;5051176;28;20518;-75
2021/03/21 00:45:01;;;;;;;5.30;4.77;;;3.30;89.40;;;;;;5051188;28;20471;-76
2021/03/21 00:47:28;;;;;;;5.07;3.60;;;3.40;89.90;;;;;;5050997;28;20616;-75
2021/03/21 00:49:54;;;;;;;7.00;4.47;;;3.40;89.10;;;;;;5051102;28;20535;-72
2021/03/21 00:52:21;;;;;;;5.73;4.57;;;3.40;88.30;;;;;;5051323;28;20535;-76
2021/03/21 00:54:47;;;;;;;6.33;4.20;;;3.40;88.50;;;;;;5051476;28;20535;-76
2021/03/21 00:57:13;;;;;;;6.50;3.80;;;3.40;89.70;;;;;;5050940;28;20570;-76
2021/03/21 00:59:41;;;;;;;6.10;4.40;;;3.40;90.00;;;;;;5050787;28;20546;-76
2021/03/21 01:02:08;;;;;;;4.90;4.40;;;3.30;89.60;;;;;;5050772;28;20539;-75
2021/03/21 01:04:35;;;;;;;6.00;4.23;;;3.40;88.60;;;;;;5050967;28;20534;-75
2021/03/21 01:07:01;;;;;;;6.60;3.87;;;3.40;90.30;;;;;;5050788;28;20527;-76
2021/03/21 01:09:28;;;;;;;4.90;4.30;;;3.40;89.50;;;;;;5050193;28;20551;-72
2021/03/21 01:11:54;;;;;;;5.17;3.70;;;3.50;87.80;;;;;;5049561;28;20547;-76
2021/03/21 01:14:20;;;;;;;5.23;4.27;;;3.50;87.30;;;;;;5042743;28;20975;-74
2021/03/21 01:16:49;;;;;;;6.77;4.13;;;3.60;86.90;;;;;;5030829;28;20504;-74
2021/03/21 01:19:19;;;;;;;4.70;3.63;;;3.50;86.80;;;;;;5031907;28;20595;-76
2021/03/21 01:21:47;;;;;;;4.70;3.33;;;3.40;89.30;;;;;;5034020;28;20536;-74
2021/03/21 01:24:15;;;;;;;5.47;3.43;;;3.40;89.70;;;;;;5034304;28;20535;-74
2021/03/21 01:26:41;;;;;;;4.70;3.50;;;3.40;89.40;;;;;;5033947;28;20472;-74
2021/03/21 01:29:08;;;;;;;4.10;3.20;;;3.30;89.50;;;;;;5034064;28;20543;-75
2021/03/21 01:31:34;;;;;;;7.17;3.53;;;3.40;90.60;;;;;;5033768;28;20543;-75
2021/03/21 01:34:01;;;;;;;6.77;3.67;;;3.30;90.40;;;;;;5033987;28;20528;-74
2021/03/21 01:36:30;;;;;;;4.60;3.67;;;3.30;90.80;;;;;;5034622;28;20479;-74
2021/03/21 01:38:59;;;;;;;5.80;3.67;;;3.30;90.90;;;;;;5035369;28;20552;-75
2021/03/21 01:41:29;;;;;;;5.83;4.00;;;3.30;90.90;;;;;;5033264;28;20584;-74
2021/03/21 01:43:55;;;;;;;5.43;3.87;;;3.30;90.10;;;;;;5033941;28;20900;-73
2021/03/21 01:46:29;;;;;;;4.73;3.70;;;3.30;90.10;;;;;;5037484;28;20515;-75
2021/03/21 01:48:57;;;;;;;4.93;4.10;;;3.20;90.80;;;;;;5035887;28;20500;-75
2021/03/21 01:51:27;;;;;;;4.33;3.67;;;3.30;89.90;;;;;;5033375;28;20444;-75
2021/03/21 01:53:57;;;;;;;6.83;3.97;;;3.30;90.40;;;;;;5033422;28;20936;-74
2021/03/21 01:56:25;;;;;;;5.90;4.30;;;3.30;90.00;;;;;;5033258;28;20560;-74
2021/03/21 01:58:59;;;;;;;5.00;3.80;;;3.30;90.60;;;;;;5033478;28;20551;-75
2021/03/21 02:01:28;;;;;;;5.90;3.60;;;3.30;90.40;;;;;;5033098;28;20475;-75
2021/03/21 02:03:55;;;;;;;7.57;3.50;;;3.30;90.30;;;;;;5035869;28;20556;-73
2021/03/21 02:06:40;;;;;;;5.47;3.00;;;3.30;89.80;;;;;;5041961;28;20565;-74
2021/03/21 02:09:17;;;;;;;4.40;3.53;;;3.30;90.50;;;;;;5042980;28;21117;-74
2021/03/21 02:11:55;;;;;;;5.97;3.90;;;3.40;91.00;;;;;;5038881;28;20532;-74
2021/03/21 02:14:31;;;;;;;6.67;3.87;;;3.40;91.10;;;;;;5048179;28;20534;-74
2021/03/21 02:17:06;;;;;;;5.30;3.70;;;3.40;90.80;;;;;;5052583;28;20482;-74
2021/03/21 02:20:14;;;;;;;4.57;3.80;;;3.40;90.60;;;;;;5048305;28;20467;-73
2021/03/21 02:22:52;;;;;;;5.43;4.00;;;3.40;91.10;;;;;;5022601;28;20493;-74
2021/03/21 02:25:36;;;;;;;4.23;3.73;;;3.40;91.40;;;;;;5032592;28;20444;-74
2021/03/21 02:28:31;;;;;;;5.57;2.83;;;3.40;91.10;;;;;;5032733;28;21078;-73
2021/03/21 02:31:03;;;;;;;4.07;3.23;;;3.50;91.00;;;;;;5031015;28;20520;-74
2021/03/21 02:33:34;;;;;;;5.20;3.93;;;3.40;91.20;;;;;;5032588;28;20528;-73
2021/03/21 02:36:07;;;;;;;9.17;4.00;;;3.50;90.90;;;;;;5032547;28;20567;-74
2021/03/21 02:38:44;;;;;;;5.20;3.40;;;3.50;90.50;;;;;;5032594;28;20547;-74
2021/03/21 02:41:15;;;;;;;7.70;4.60;;;3.50;90.90;;;;;;5032116;28;20536;-73
2021/03/21 02:43:47;;;;;;;4.17;3.77;;;3.40;90.90;;;;;;5032398;28;20882;-74
2021/03/21 02:46:20;;;;;;;5.17;3.57;;;3.50;90.10;;;;;;5032361;28;20533;-74
2021/03/21 02:48:51;;;;;;;6.10;3.97;;;3.40;89.00;;;;;;5034179;28;20556;-75
2021/03/21 02:51:28;;;;;;;6.07;3.40;;;3.50;90.00;;;;;;5035907;28;20511;-73
2021/03/21 02:53:59;;;;;;;4.60;3.70;;;3.40;90.60;;;;;;5032272;28;20527;-73
2021/03/21 02:56:28;;;;;;;4.90;3.60;;;3.40;90.60;;;;;;5032181;28;20480;-73
2021/03/21 02:59:01;;;;;;;5.13;3.60;;;3.40;90.50;;;;;;5031757;28;20902;-73
2021/03/21 03:01:33;;;;;;;7.57;3.93;;;3.50;91.20;;;;;;5031658;28;20948;-73
2021/03/21 03:04:07;;;;;;;3.57;3.23;;;3.40;91.10;;;;;;5031960;28;20445;-73
2021/03/21 03:06:36;;;;;;;4.70;3.60;;;3.40;90.60;;;;;;5031815;28;20445;-73
2021/03/21 03:09:07;;;;;;;6.30;3.97;;;3.50;91.20;;;;;;5031604;28;20457;-73
2021/03/21 03:11:41;;;;;;;4.80;3.60;;;3.50;91.20;;;;;;5031783;28;20453;-73
2021/03/21 03:14:11;;;;;;;6.03;3.70;;;3.50;91.00;;;;;;5031658;28;20540;-74
2021/03/21 03:16:46;;;;;;;7.43;5.23;;;3.50;90.50;;;;;;5031684;28;20571;-73
2021/03/21 03:19:23;;;;;;;3.50;3.13;;;3.50;91.00;;;;;;5031449;28;20543;-75
2021/03/21 03:21:57;;;;;;;4.93;3.70;;;3.40;91.20;;;;;;5031472;28;20624;-74
2021/03/21 03:24:35;;;;;;;4.07;3.17;;;3.30;91.40;;;;;;5031636;28;20535;-74
2021/03/21 03:27:08;;;;;;;5.53;3.37;;;3.30;91.60;;;;;;5031926;28;20531;-74
2021/03/21 03:29:37;;;;;;;6.20;3.80;;;3.30;91.30;;;;;;5031152;28;20539;-73
2021/03/21 03:32:11;;;;;;;4.90;3.63;;;3.30;92.00;;;;;;5031516;28;20483;-74
2021/03/21 03:34:39;;;;;;;5.30;3.70;;;3.30;91.70;;;;;;5031503;28;20536;-75
2021/03/21 03:37:06;;;;;;;5.37;3.80;;;3.30;91.50;;;;;;5031253;28;20512;-74
2021/03/21 03:39:34;;;;;;;4.10;3.40;;;3.30;91.40;;;;;;5031017;28;20544;-74
2021/03/21 03:42:09;;;;;;;4.40;3.80;;;3.30;91.20;;;;;;5030636;28;20456;-74
2021/03/21 03:44:41;;;;;;;4.50;3.90;;;3.40;90.80;;;;;;5031050;28;20896;-75
2021/03/21 03:47:15;;;;;;;5.03;3.13;;;3.30;90.70;;;;;;5031253;28;20596;-75
2021/03/21 03:49:54;;;;;;;4.90;3.30;;;3.30;91.20;;;;;;5030954;28;20547;-73
2021/03/21 03:52:47;;;;;;;5.13;3.40;;;3.30;91.10;;;;;;5030953;28;20445;-74
2021/03/21 03:55:21;;;;;;;6.00;3.93;;;3.30;91.80;;;;;;5030770;28;20560;-73
2021/03/21 03:57:51;;;;;;;4.20;3.80;;;3.40;91.70;;;;;;5040217;28;20547;-75
2021/03/21 04:00:27;;;;;;;4.97;3.70;;;3.50;91.50;;;;;;5038619;28;20547;-73
2021/03/21 04:03:08;;;;;;;5.37;3.77;;;3.50;91.30;;;;;;5035176;28;20520;-74
2021/03/21 04:05:40;;;;;;;4.30;3.20;;;3.40;91.20;;;;;;5030913;28;20587;-73
2021/03/21 04:08:13;;;;;;;4.90;4.17;;;3.50;91.30;;;;;;5031002;28;20499;-74
2021/03/21 04:10:46;;;;;;;4.00;3.00;;;3.40;91.30;;;;;;5041499;28;21127;-73
2021/03/21 04:13:18;;;;;;;5.07;3.23;;;3.40;91.90;;;;;;5050675;28;20551;-73
2021/03/21 04:15:47;;;;;;;5.47;3.57;;;3.40;92.10;;;;;;5050487;28;20519;-73
2021/03/21 04:18:23;;;;;;;6.03;3.37;;;3.40;92.10;;;;;;5050568;28;20460;-73
2021/03/21 04:20:56;;;;;;;4.40;3.50;;;3.30;91.60;;;;;;5050457;28;20466;-73
2021/03/21 04:23:31;;;;;;;4.20;3.20;;;3.30;91.00;;;;;;5050610;28;20447;-73
2021/03/21 04:26:02;;;;;;;4.47;4.07;;;3.40;91.80;;;;;;5050676;28;20515;-73
2021/03/21 04:28:37;;;;;;;4.30;3.10;;;3.40;92.50;;;;;;5050372;28;20841;-73
2021/03/21 04:31:05;;;;;;;5.17;3.43;;;3.50;92.80;;;;;;5050450;28;20443;-73
2021/03/21 04:33:38;;;;;;;4.30;3.60;;;3.50;92.30;;;;;;5050575;28;20787;-73
2021/03/21 04:36:09;;;;;;;4.27;3.37;;;3.40;94.10;;;;;;5050572;28;20558;-73
2021/03/21 04:38:40;;;;;;;5.63;3.60;;;3.40;93.30;;;;;;5048292;28;20482;-73
2021/03/21 04:41:11;;;;;;;5.00;3.53;;;3.30;93.60;;;;;;5046622;28;20595;-73
2021/03/21 04:43:40;;;;;;;7.17;4.03;;;3.30;95.50;;;;;;5050650;28;20519;-74
2021/03/21 04:46:11;;;;;;;4.97;3.40;;;3.20;93.80;;;;;;5050488;28;20526;-73
2021/03/21 04:48:39;;;;;;;5.43;3.63;;;3.20;93.80;;;;;;5050386;28;20550;-73
2021/03/21 04:51:11;;;;;;;5.20;3.33;;;3.30;92.80;;;;;;5050207;28;20447;-73
2021/03/21 04:53:44;;;;;;;4.30;3.63;;;3.30;92.80;;;;;;5051205;28;20593;-73
2021/03/21 04:56:17;;;;;;;5.20;4.17;;;3.30;93.80;;;;;;5054555;28;20567;-73
2021/03/21 04:58:47;;;;;;;4.97;3.43;;;3.30;94.20;;;;;;5054224;28;20463;-73
2021/03/21 05:01:19;;;;;;;4.83;3.47;;;3.40;93.30;;;;;;5054023;28;20447;-73
2021/03/21 05:03:51;;;;;;;6.67;3.33;;;3.40;93.30;;;;;;5054257;28;20535;-73
2021/03/21 05:06:25;;;;;;;4.10;3.40;;;3.40;93.30;;;;;;5054029;28;20927;-73
2021/03/21 05:08:57;;;;;;;4.30;3.43;;;3.40;92.70;;;;;;5054217;28;20546;-74
2021/03/21 05:11:30;;;;;;;4.10;3.20;;;3.40;92.60;;;;;;5053849;28;20870;-74
2021/03/21 05:14:01;;;;;;;4.53;3.20;;;3.40;93.00;;;;;;5053847;28;20542;-74
2021/03/21 05:16:36;;;;;;;3.63;3.30;;;3.40;93.30;;;;;;5053810;28;20561;-74
2021/03/21 05:19:14;;;;;;;4.50;3.10;;;3.40;93.00;;;;;;5053931;28;20904;-74
2021/03/21 05:21:44;;;;;;;4.20;3.30;;;3.40;92.80;;;;;;5053562;28;20531;-74
2021/03/21 05:24:16;;;;;;;4.13;3.43;;;3.50;92.10;;;;;;5053680;28;20470;-74
2021/03/21 05:26:49;;;;;;;7.53;3.37;;;3.40;92.40;;;;;;5053628;28;20444;-74
2021/03/21 05:29:45;;;;;;;7.70;4.23;;;3.40;93.00;;;;;;5053778;28;20551;-74
2021/03/21 05:32:15;;;;;;;3.80;3.37;;;3.40;94.20;;;;;;5053341;28;21018;-74
2021/03/21 05:34:43;;;;;;;7.17;3.40;;;3.40;92.80;;;;;;5053616;28;20436;-74
2021/03/21 05:37:24;;;;;;;4.63;3.33;;;3.50;92.10;;;;;;5053746;28;20558;-74
2021/03/21 05:39:59;;;;;;;4.00;3.20;;;3.50;92.80;;;;;;5053494;28;20451;-74
2021/03/21 05:42:58;;;;;;;4.00;3.00;;;3.50;94.80;;;;;;5053412;28;20535;-74
2021/03/21 05:45:50;;;;;;;4.00;3.60;;;3.50;95.40;;;;;;5053275;28;20603;-74
2021/03/21 05:48:40;;;;;;;5.17;3.50;;;3.50;94.50;;;;;;5045878;28;20539;-74
2021/03/21 05:51:49;;;;;;;5.10;4.00;;;3.50;93.20;;;;;;5045236;28;20447;-74
2021/03/21 05:54:55;;;;;;;7.23;4.47;;;3.50;93.10;;;;;;5043223;28;21033;-74
2021/03/21 05:57:48;;;;;;;5.20;3.67;;;3.60;93.90;;;;;;5029700;28;20570;-73
2021/03/21 06:00:46;;;;;;;4.87;3.03;;;3.50;95.30;;;;;;5053099;28;20851;-74
2021/03/21 06:03:50;;;;;;;4.30;3.03;;;3.50;94.50;;;;;;5053013;28;20498;-74
2021/03/21 06:07:05;;;;;;;6.03;3.63;;;3.60;94.30;;;;;;5052523;28;20527;-74
2021/03/21 06:09:47;;;;;;;3.50;2.90;;;3.60;94.80;;;;;;4971267;28;20546;-74
2021/03/21 06:12:27;;;;;;;4.53;3.30;;;3.70;95.40;;;;;;5052699;28;20539;-74
2021/03/21 06:15:29;;;;;;;4.33;3.00;;;3.70;95.30;;;;;;5053000;28;20448;-75
2021/03/21 06:18:26;;;;;;;4.30;3.60;;;3.70;95.50;;;;;;5052815;28;20546;-74
2021/03/21 06:21:21;;;;;;;3.43;2.80;;;3.80;95.40;;;;;;5048988;28;20551;-74
2021/03/21 06:24:32;;;;;;;5.73;3.97;;;3.80;95.00;;;;;;5038849;28;20494;-74
2021/03/21 06:27:39;;;;;;;3.83;3.50;;;3.90;94.80;;;;;;4971353;28;20476;-74
2021/03/21 06:30:47;;;;;;;4.40;3.20;;;3.90;94.20;;;;;;5049492;28;20539;-74
2021/03/21 06:33:24;;;;;;;5.60;3.43;;;4.00;93.90;;;;;;5052309;28;20531;-73
2021/03/21 06:36:17;;;;;;;4.73;3.47;;;4.00;93.90;;;;;;5052561;28;20460;-74
2021/03/21 06:39:08;;;;;;;4.33;3.60;;;4.10;93.70;;;;;;5052068;28;21045;-74
2021/03/21 06:42:14;;;;;;;7.20;3.77;;;4.10;94.20;;;;;;5051862;28;20444;-74
2021/03/21 06:45:10;;;;;;;4.80;3.33;;;4.10;94.10;;;;;;5045554;28;20881;-74
2021/03/21 06:47:58;;;;;;;5.27;3.90;;;4.30;93.80;;;;;;5039117;28;20535;-74
2021/03/21 06:50:39;;;;;;;5.37;3.60;;;4.20;94.70;;;;;;5051952;28;20448;-74
2021/03/21 06:53:12;;;;;;;5.80;3.97;;;4.20;93.60;;;;;;5052098;28;20444;-74
2021/03/21 06:55:43;;;;;;;4.70;3.40;;;4.20;94.20;;;;;;5051795;28;20444;-74
2021/03/21 06:58:54;;;;;;;4.43;3.20;;;4.30;93.70;;;;;;5051699;28;20495;-74
2021/03/21 07:01:29;;;;;;;4.30;3.03;;;4.20;94.00;;;;;;5051474;28;20476;-74
2021/03/21 07:04:43;;;;;;;4.80;3.33;;;4.20;93.80;;;;;;5051796;28;20443;-74
2021/03/21 07:07:50;;;;;;;4.40;3.53;;;4.30;93.90;;;;;;5051634;28;20531;-74
2021/03/21 07:10:57;;;;;;;4.40;3.53;;;4.30;93.40;;;;;;5051281;28;20486;-74
2021/03/21 07:14:09;;;;;;;5.90;3.20;;;4.30;93.80;;;;;;5051117;28;20475;-74
2021/03/21 07:17:08;;;;;;;4.93;3.50;;;4.30;93.50;;;;;;5050798;28;20476;-74
2021/03/21 07:20:30;;;;;;;7.33;3.43;;;4.40;93.60;;;;;;5051844;28;20555;-74
2021/03/21 07:23:35;;;;;;;5.23;4.73;;;4.40;93.50;;;;;;5017512;28;20454;-74
2021/03/21 07:26:18;;;;;;;5.47;3.20;;;4.40;94.00;;;;;;5051353;28;20947;-74
2021/03/21 07:29:26;;;;;;;4.27;3.17;;;4.50;93.80;;;;;;5051177;28;20468;-74
2021/03/21 07:32:14;;;;;;;5.50;3.63;;;4.60;93.90;;;;;;5047878;28;20542;-74
2021/03/21 07:35:08;;;;;;;4.13;3.30;;;4.60;93.90;;;;;;5051156;28;20527;-74
2021/03/21 07:37:44;;;;;;;6.10;3.17;;;4.70;92.10;;;;;;5043056;28;20487;-73
2021/03/21 07:40:22;;;;;;;4.20;3.40;;;4.70;92.60;;;;;;5050702;28;20530;-74
2021/03/21 07:43:36;;;;;;;4.70;3.10;;;4.70;92.50;;;;;;5051302;28;20530;-74
2021/03/21 07:46:32;;;;;;;4.23;3.10;;;4.70;92.90;;;;;;5051153;28;20819;-74
2021/03/21 07:49:20;;;;;;;3.83;3.33;;;4.80;92.90;;;;;;5051395;28;20550;-74
2021/03/21 07:52:06;;;;;;;4.03;3.40;;;4.90;93.60;;;;;;5047356;28;20547;-74
2021/03/21 07:54:37;;;;;;;4.40;3.10;;;4.90;93.30;;;;;;5050743;28;20539;-75
2021/03/21 07:57:12;;;;;;;5.00;3.07;;;5.00;93.00;;;;;;5051487;28;20900;-75
2021/03/21 07:59:40;;;;;;;4.90;3.73;;;5.10;92.80;;;;;;5050306;28;20467;-74
2021/03/21 08:02:10;;;;;;;4.20;3.10;;;5.10;92.90;;;;;;5050736;28;20491;-74
2021/03/21 08:04:47;;;;;;;4.13;3.00;;;5.00;93.40;;;;;;5042614;28;20504;-76
2021/03/21 08:07:17;;;;;;;3.57;3.17;;;5.10;91.60;;;;;;5034032;28;20768;-76
2021/03/21 08:09:44;;;;;;;4.03;2.67;;;5.10;92.60;;;;;;5030662;28;20461;-76
2021/03/21 08:12:30;;;;;;;3.93;3.40;;;5.20;93.10;;;;;;5030738;28;20535;-76
2021/03/21 08:15:06;;;;;;;7.37;4.13;;;5.30;93.00;;;;;;5038751;28;20946;-76
2021/03/21 08:17:38;;;;;;;5.30;3.77;;;5.40;92.10;;;;;;5030550;28;20967;-76
2021/03/21 08:20:16;;;;;;;3.60;2.80;;;5.60;91.90;;;;;;5030524;28;20540;-76
2021/03/21 08:22:44;;;;;;;4.87;3.00;;;5.60;91.50;;;;;;5030555;28;21218;-76
2021/03/21 08:25:21;;;;;;;4.73;3.10;;;5.60;91.30;;;;;;5030584;28;20584;-75
2021/03/21 08:27:48;;;;;;;5.40;3.37;;;5.40;92.30;;;;;;5031549;28;20491;-76
2021/03/21 08:30:16;;;;;;;4.97;3.00;;;5.40;92.00;;;;;;5034517;28;20445;-75
2021/03/21 08:32:55;;;;;;;3.97;3.20;;;5.50;92.20;;;;;;5034792;28;20453;-76
2021/03/21 08:35:24;;;;;;;5.57;3.60;;;5.70;92.40;;;;;;5035027;28;20532;-75
2021/03/21 08:37:53;;;;;;;4.37;3.27;;;5.90;92.20;;;;;;5045860;28;20570;-76
2021/03/21 08:40:28;;;;;;;6.50;3.77;;;6.00;91.60;;;;;;5042114;28;20480;-76
2021/03/21 08:43:09;;;;;;;5.33;3.60;;;6.20;91.50;;;;;;5034865;28;20467;-75
2021/03/21 08:45:38;;;;;;;4.20;3.13;;;6.20;91.10;;;;;;5034436;28;20944;-76
2021/03/21 08:48:30;;;;;;;6.50;3.57;;;6.10;90.90;;;;;;5034436;28;20539;-75
2021/03/21 08:50:59;;;;;;;4.03;3.17;;;6.20;91.70;;;;;;5034194;28;20445;-76
2021/03/21 08:53:35;;;;;;;4.57;3.57;;;6.20;91.40;;;;;;5034249;28;20499;-76
2021/03/21 08:56:17;;;;;;;5.17;3.40;;;6.20;91.50;;;;;;5034305;28;20479;-75
2021/03/21 08:58:45;;;;;;;4.03;3.33;;;6.20;90.90;;;;;;5034092;28;20547;-76
2021/03/21 09:01:15;;;;;;;5.83;4.20;;;6.20;91.20;;;;;;5033808;28;20476;-75
2021/03/21 09:03:42;;;;;;;3.93;3.53;;;6.20;90.90;;;;;;5034017;28;20539;-74
2021/03/21 09:06:24;;;;;;;7.07;4.20;;;6.20;91.30;;;;;;5034320;28;20524;-76
2021/03/21 09:08:52;;;;;;;6.87;4.17;;;6.30;91.30;;;;;;5034121;28;20528;-76
2021/03/21 09:11:34;;;;;;;6.40;4.50;;;6.20;90.50;;;;;;5033635;28;20961;-75
2021/03/21 09:14:03;;;;;;;4.90;3.20;;;6.10;90.30;;;;;;5033985;28;20627;-74
2021/03/21 09:16:30;;;;;;;4.90;3.83;;;5.90;90.50;;;;;;5051910;28;20488;-76
2021/03/21 09:19:16;;;;;;;6.13;4.13;;;5.90;90.70;;;;;;5039318;28;21034;-75
2021/03/21 09:21:46;;;;;;;5.50;4.30;;;5.80;90.80;;;;;;5041386;28;20571;-75
2021/03/21 09:24:22;;;;;;;4.97;4.30;;;5.80;91.10;;;;;;5045159;28;20539;-73
2021/03/21 09:26:48;;;;;;;4.90;3.80;;;5.80;90.80;;;;;;5052600;28;20455;-72
2021/03/21 09:29:22;;;;;;;8.03;4.40;;;5.70;91.50;;;;;;5050585;28;20550;-71
2021/03/21 09:31:50;;;;;;;4.27;3.87;;;5.70;91.50;;;;;;5047654;28;20936;-72
2021/03/21 09:34:23;;;;;;;4.20;3.80;;;5.70;92.20;;;;;;5034067;28;20998;-71
2021/03/21 09:36:56;;;;;;;4.87;3.60;;;5.70;91.70;;;;;;5034295;28;20568;-72
2021/03/21 09:39:26;;;;;;;6.70;4.60;;;5.80;91.40;;;;;;5035433;28;20527;-70
2021/03/21 09:41:53;;;;;;;4.67;3.80;;;5.80;91.20;;;;;;5033485;28;20929;-72
2021/03/21 09:44:33;;;;;;;7.83;3.70;;;5.90;91.20;;;;;;5033361;28;20544;-72
2021/03/21 09:47:09;;;;;;;5.10;4.20;;;5.80;91.40;;;;;;5040231;28;20795;-70
2021/03/21 09:49:46;;;;;;;6.17;4.53;;;5.80;91.50;;;;;;5047555;28;20871;-71
2021/03/21 09:52:14;;;;;;;6.00;4.37;;;5.90;91.80;;;;;;5053021;28;20535;-71
2021/03/21 09:54:48;;;;;;;7.07;3.93;;;6.00;92.10;;;;;;5053193;28;20543;-71
2021/03/21 09:57:53;;;;;;;5.57;4.43;;;6.20;91.80;;;;;;5053173;28;20511;-72
2021/03/21 10:00:24;;;;;;;5.97;4.60;;;6.30;91.50;;;;;;4972187;28;20443;-71
2021/03/21 10:02:55;;;;;;;9.37;6.10;;;6.30;92.10;;;;;;4971652;28;20498;-72
2021/03/21 10:05:31;;;;;;;7.60;5.67;;;6.40;92.10;;;;;;5015112;28;21029;-71
2021/03/21 10:08:08;;;;;;;8.10;5.50;;;6.50;92.60;;;;;;5052982;28;20579;-71
2021/03/21 10:10:38;;;;;;;6.40;4.77;;;6.50;92.40;;;;;;5052432;28;20526;-71
2021/03/21 10:13:05;;;;;;;6.93;4.97;;;6.60;92.60;;;;;;5052691;28;20494;-73
2021/03/21 10:15:52;;;;;;;7.57;4.60;;;6.70;92.40;;;;;;5047628;28;20540;-72
2021/03/21 10:18:40;;;;;;;6.87;4.90;;;6.90;91.80;;;;;;5035350;28;21021;-73
2021/03/21 10:21:07;;;;;;;6.40;4.80;;;6.80;91.80;;;;;;5032390;28;20944;-71
2021/03/21 10:24:12;;;;;;;5.87;4.40;;;6.80;92.20;;;;;;5033038;28;20472;-72
2021/03/21 10:27:26;;;;;;;8.73;5.07;;;6.70;93.40;;;;;;5030871;28;21036;-72
2021/03/21 10:30:20;;;;;;;6.77;4.97;;;6.60;94.60;;;;;;5032316;28;20437;-73
2021/03/21 10:32:49;;;;;;;6.60;4.80;;;6.40;94.80;;;;;;5032095;28;20539;-72
2021/03/21 10:35:48;;;;;;;8.63;5.80;;;6.40;96.90;;;;;;5032918;28;20449;-72
2021/03/21 10:38:45;;;;;;;7.43;5.13;;;6.60;96.90;;;;;;5048385;28;20531;-72
2021/03/21 10:41:42;;;;;;;6.80;5.37;;;6.40;98.10;;;;;;5034215;28;20865;-71
2021/03/21 10:44:09;;;;;;;8.63;5.50;;;6.30;98.80;;;;;;5030608;28;20556;-76
2021/03/21 10:46:48;;;;;;;6.57;4.70;;;6.20;98.40;;;;;;5039927;28;20487;-76
2021/03/21 10:49:49;;;;;;;6.43;4.63;;;6.30;99.50;;;;;;5035502;28;20935;-76
2021/03/21 10:52:27;;;;;;;4.50;4.10;;;6.20;99.90;;;;;;5039341;28;20460;-76
2021/03/21 10:55:26;;;;;;;7.87;5.30;;;6.20;99.90;;;;;;5046148;28;20961;-75
2021/03/21 10:57:54;;;;;;;5.37;4.40;;;6.30;99.90;;;;;;5034532;28;21378;-75
2021/03/21 11:00:22;;;;;;;6.77;4.43;;;6.30;99.90;;;;;;5044223;28;20476;-76
2021/03/21 11:03:10;;;;;;;11.83;6.00;;;6.30;99.90;;;;;;5040030;28;20456;-75
2021/03/21 11:05:40;;;;;;;8.00;6.13;;;6.50;99.90;;;;;;5036602;28;20449;-74
2021/03/21 11:08:15;;;;;;;7.60;6.47;;;6.50;99.90;;;;;;5042300;28;20456;-74
2021/03/21 11:10:46;;;;;;;9.30;6.63;;;6.50;99.90;;;;;;5048054;28;20444;-75
2021/03/21 11:13:15;;;;;;;8.73;5.93;;;6.50;99.90;;;;;;5049781;28;20463;-74
2021/03/21 11:15:44;;;;;;;8.33;6.23;;;6.60;99.90;;;;;;5041130;28;20981;-75
2021/03/21 11:18:24;;;;;;;8.07;6.23;;;6.70;99.90;;;;;;5050250;28;20484;-73
2021/03/21 11:21:02;;;;;;;7.40;6.30;;;7.00;99.60;;;;;;5039449;28;20510;-73
2021/03/21 11:23:28;;;;;;;6.70;5.83;;;7.10;97.80;;;;;;5031926;28;20503;-74
2021/03/21 11:25:56;;;;;;;8.40;5.70;;;7.00;97.80;;;;;;5033745;28;21161;-75
2021/03/21 11:28:36;;;;;;;7.00;5.93;;;6.90;97.60;;;;;;5043186;28;20994;-74
2021/03/21 11:31:05;;;;;;;6.93;5.73;;;6.80;97.20;;;;;;5042841;28;20450;-73
2021/03/21 11:33:37;;;;;;;8.10;6.10;;;6.80;97.30;;;;;;5042031;28;20509;-71
2021/03/21 11:36:25;;;;;;;9.83;5.87;;;6.80;97.10;;;;;;5049766;28;20451;-71
2021/03/21 11:38:52;;;;;;;9.33;6.57;;;7.00;97.10;;;;;;5049573;28;20468;-71
2021/03/21 11:41:37;;;;;;;7.53;5.80;;;7.00;97.10;;;;;;5047032;28;20476;-72
2021/03/21 11:44:22;;;;;;;7.73;6.20;;;7.20;97.50;;;;;;5035831;28;20520;-70
2021/03/21 11:46:50;;;;;;;8.27;5.43;;;6.90;97.40;;;;;;5040560;28;20594;-71
2021/03/21 11:49:17;;;;;;;6.20;4.90;;;6.70;98.00;;;;;;5031772;28;20544;-70
2021/03/21 11:51:46;;;;;;;7.57;5.90;;;6.60;98.50;;;;;;5027476;28;20539;-70
2021/03/21 11:54:18;;;;;;;5.77;4.97;;;6.50;99.00;;;;;;5034863;28;21067;-71
2021/03/21 11:56:54;;;;;;;9.27;4.90;;;6.40;99.70;;;;;;5028978;28;20572;-70
2021/03/21 11:59:27;;;;;;;7.33;5.00;;;6.40;99.90;;;;;;5030050;28;20471;-74
2021/03/21 12:01:56;;;;;;;8.93;5.33;;;6.30;99.90;;;;;;5033183;28;20540;-73
2021/03/21 12:04:25;;;;;;;7.13;5.40;;;6.40;99.90;;;;;;5038087;28;20988;-71
2021/03/21 12:06:53;;;;;;;5.53;5.00;;;6.50;99.90;;;;;;5036745;28;20487;-73
2021/03/21 12:09:26;;;;;;;5.97;5.10;;;6.50;99.90;;;;;;5038703;28;20480;-72
2021/03/21 12:11:56;;;;;;;8.17;5.47;;;6.60;99.90;;;;;;5035634;28;20453;-71
2021/03/21 12:14:46;;;;;;;6.80;5.40;;;6.60;99.90;;;;;;5042425;28;20455;-70
2021/03/21 12:17:34;;;;;;;7.60;6.03;;;6.60;99.90;;;;;;5039714;28;20479;-72
2021/03/21 12:20:25;;;;;;;7.63;5.60;;;6.60;99.90;;;;;;5034444;28;21319;-72
2021/03/21 12:22:52;;;;;;;5.77;5.00;;;6.60;99.90;;;;;;5035102;28;20587;-69
2021/03/21 12:25:22;;;;;;;7.73;6.13;;;6.60;99.90;;;;;;5033935;28;20445;-71
2021/03/21 12:27:50;;;;;;;8.37;5.50;;;6.60;99.90;;;;;;5037711;28;20536;-71
2021/03/21 12:30:20;;;;;;;7.40;5.70;;;6.60;99.90;;;;;;5040670;28;20437;-69
2021/03/21 12:32:50;;;;;;;7.07;5.10;;;6.70;99.90;;;;;;5046667;28;20523;-69
2021/03/21 12:35:40;;;;;;;8.97;5.80;;;7.00;99.90;;;;;;5043790;28;20444;-71
2021/03/21 12:38:12;;;;;;;6.13;5.53;;;7.40;99.90;;;;;;5047213;28;20483;-72
2021/03/21 12:40:42;;;;;;;7.57;6.30;;;7.60;99.90;;;;;;5046832;28;20524;-70
2021/03/21 12:43:22;;;;;;;8.00;5.73;;;7.60;99.90;;;;;;5048307;28;20571;-72
2021/03/21 12:46:10;;;;;;;7.87;6.20;;;7.40;99.90;;;;;;5048337;28;21041;-69
2021/03/21 12:48:49;;;;;;;7.90;6.23;;;7.40;99.90;;;;;;5041940;28;21045;-70
2021/03/21 12:51:27;;;;;;;10.30;6.30;;;7.40;99.90;;;;;;5046239;28;20440;-71
2021/03/21 12:53:53;;;;;;;7.20;5.73;;;7.70;99.90;;;;;;5048085;28;20539;-71
2021/03/21 12:56:20;;;;;;;8.67;6.10;;;8.20;99.90;;;;;;5047986;28;20539;-71
2021/03/21 12:58:47;;;;;;;7.90;5.57;;;8.20;99.90;;;;;;5047996;28;20503;-69
2021/03/21 13:01:14;;;;;;;6.97;6.27;;;8.00;99.90;;;;;;5046511;28;20468;-71
2021/03/21 13:03:40;;;;;;;7.63;5.97;;;7.90;99.90;;;;;;5047984;28;20563;-69
2021/03/21 13:06:08;;;;;;;7.73;5.83;;;7.60;99.90;;;;;;5047974;28;20491;-71
2021/03/21 13:08:34;;;;;;;7.60;6.20;;;7.50;99.90;;;;;;5044109;28;20547;-70
2021/03/21 13:11:03;;;;;;;9.33;6.07;;;7.60;99.90;;;;;;5029999;28;20536;-69
2021/03/21 13:13:29;;;;;;;9.60;6.50;;;7.50;99.90;;;;;;5028870;28;20456;-69
2021/03/21 13:15:57;;;;;;;7.63;6.77;;;7.30;99.90;;;;;;5031326;28;20875;-69
2021/03/21 13:18:25;;;;;;;8.20;7.20;;;7.30;99.90;;;;;;5031815;28;20492;-70
2021/03/21 13:20:53;;;;;;;7.57;5.60;;;7.30;99.90;;;;;;5031118;28;20441;-68
2021/03/21 13:23:20;;;;;;;8.80;6.63;;;7.30;99.90;;;;;;5032908;28;20485;-69
2021/03/21 13:25:47;;;;;;;9.40;7.03;;;7.30;99.90;;;;;;5042539;28;20532;-67
2021/03/21 13:28:14;;;;;;;12.20;6.70;;;7.30;99.90;;;;;;5039503;28;20457;-68
2021/03/21 13:30:43;;;;;;;11.50;6.40;;;7.20;99.90;;;;;;5032114;28;20543;-69
2021/03/21 13:33:14;;;;;;;7.00;6.17;;;7.00;99.90;;;;;;5043550;28;20519;-68
2021/03/21 13:35:40;;;;;;;7.40;6.40;;;7.00;99.90;;;;;;5036239;28;20459;-68
2021/03/21 13:38:07;;;;;;;7.27;5.97;;;7.00;99.90;;;;;;5045305;28;20567;-69
2021/03/21 13:40:36;;;;;;;9.90;6.97;;;7.00;99.90;;;;;;5053203;28;20459;-74
2021/03/21 13:43:04;;;;;;;7.60;6.63;;;6.90;99.90;;;;;;5043608;28;20468;-76
2021/03/21 13:45:33;;;;;;;7.63;5.97;;;6.90;99.90;;;;;;5040434;28;20472;-76